Time;durP1;ratioP1;P1;durP2;ratioP2;P2;SDS_P1;SDS_P2;PMS_P1;PMS_P2;Temp;Humidity;BMP_temperature;BMP_pressure;BME280_temperature;BME280_humidity;BME280_pressure;Samples;Min_cycle;Max_cycle;Signal;HPM_P1;HPM_P2
2021/05/05 00:00:42;;;;;;;3.50;3.10;;;;;19.90;98947.00;;;;2078940;28;20248;-67
2021/05/05 00:01:56;;;;;;;3.83;3.17;;;;;19.90;98948.00;;;;2078219;28;20210;-68
2021/05/05 00:02:56;;;;;;;4.25;3.03;;;;;19.90;98944.00;;;;2069804;28;20683;-67
2021/05/05 00:03:56;;;;;;;5.73;3.17;;;;;19.90;98948.00;;;;2078926;28;20276;-67
2021/05/05 00:04:57;;;;;;;3.87;2.73;;;;;19.90;98940.00;;;;2079416;28;20652;-67
2021/05/05 00:05:57;;;;;;;3.60;2.67;;;;;19.90;98946.00;;;;2080237;28;20589;-67
2021/05/05 00:06:58;;;;;;;3.60;2.90;;;;;19.90;98944.00;;;;2080471;28;20222;-67
2021/05/05 00:07:58;;;;;;;4.93;3.03;;;;;19.90;98950.00;;;;2080647;28;20228;-68
2021/05/05 00:08:58;;;;;;;3.10;2.60;;;;;19.90;98945.00;;;;2079576;28;20229;-67
2021/05/05 00:09:59;;;;;;;4.60;2.93;;;;;19.90;98940.00;;;;2080071;28;20218;-67
2021/05/05 00:10:59;;;;;;;3.43;2.67;;;;;19.90;98948.00;;;;2071308;28;20234;-67
2021/05/05 00:11:59;;;;;;;3.80;2.43;;;;;19.90;98945.00;;;;2071312;28;20227;-68
2021/05/05 00:13:00;;;;;;;2.67;2.47;;;;;19.90;98948.00;;;;2081157;28;20245;-67
2021/05/05 00:14:00;;;;;;;3.07;2.60;;;;;19.90;98948.00;;;;2081197;28;20222;-67
2021/05/05 00:15:01;;;;;;;3.80;2.70;;;;;19.90;98945.00;;;;2080993;28;20224;-67
2021/05/05 00:16:02;;;;;;;4.10;2.73;;;;;19.90;98952.00;;;;2081010;28;20276;-67
2021/05/05 00:17:02;;;;;;;3.33;2.40;;;;;19.90;98947.00;;;;2080370;28;20484;-67
2021/05/05 00:18:02;;;;;;;3.20;2.63;;;;;19.80;98946.00;;;;2080421;28;20222;-68
2021/05/05 00:19:03;;;;;;;2.50;2.30;;;;;19.90;98946.00;;;;2081189;28;20213;-68
2021/05/05 00:20:05;;;;;;;3.93;2.50;;;;;19.90;98951.00;;;;2081060;28;20588;-68
2021/05/05 00:21:05;;;;;;;3.28;2.28;;;;;19.80;98954.00;;;;2072128;28;20465;-68
2021/05/05 00:22:06;;;;;;;3.00;2.37;;;;;19.90;98947.00;;;;2072261;28;20219;-68
2021/05/05 00:23:07;;;;;;;2.97;2.58;;;;;19.90;98927.00;;;;2080317;28;20234;-68
2021/05/05 00:24:08;;;;;;;4.20;2.03;;;;;19.80;98938.00;;;;2064289;28;20222;-68
2021/05/05 00:25:09;;;;;;;3.22;2.30;;;;;19.90;98944.00;;;;2062755;28;20211;-68
2021/05/05 00:26:09;;;;;;;3.77;2.30;;;;;19.80;98945.00;;;;2080323;28;20221;-68
2021/05/05 00:27:10;;;;;;;2.63;2.10;;;;;19.80;98952.00;;;;2080939;28;20289;-68
2021/05/05 00:28:10;;;;;;;3.93;2.60;;;;;19.80;98952.00;;;;2080489;28;20210;-67
2021/05/05 00:29:10;;;;;;;2.27;2.00;;;;;19.80;98947.00;;;;2079774;28;20219;-68
2021/05/05 00:30:12;;;;;;;2.40;2.20;;;;;19.80;98945.00;;;;2081003;28;20617;-68
2021/05/05 00:31:12;;;;;;;4.35;2.50;;;;;19.90;98943.00;;;;2072057;28;20226;-68
2021/05/05 00:32:13;;;;;;;3.00;2.33;;;;;19.90;98948.00;;;;2063981;28;20211;-68
2021/05/05 00:33:13;;;;;;;3.37;2.03;;;;;19.90;98949.00;;;;2080575;28;20206;-71
2021/05/05 00:34:13;;;;;;;3.90;2.27;;;;;19.90;98957.00;;;;2080215;28;20218;-72
2021/05/05 00:35:14;;;;;;;2.60;2.37;;;;;19.90;98951.00;;;;2071875;28;22372;-72
2021/05/05 00:36:14;;;;;;;3.00;2.43;;;;;19.90;98931.00;;;;2072000;28;20242;-72
2021/05/05 00:37:14;;;;;;;4.70;2.33;;;;;19.90;98941.00;;;;2071964;28;20222;-72
2021/05/05 00:38:15;;;;;;;2.20;2.00;;;;;19.80;98947.00;;;;2071993;28;20233;-72
2021/05/05 00:39:15;;;;;;;2.33;1.90;;;;;19.90;98961.00;;;;2072202;28;20242;-72
2021/05/05 00:40:16;;;;;;;2.93;2.10;;;;;19.90;98945.00;;;;2080312;28;20226;-72
2021/05/05 00:41:18;;;;;;;2.40;1.80;;;;;19.80;98947.00;;;;2072171;28;20690;-72
2021/05/05 00:42:19;;;;;;;2.50;1.98;;;;;19.90;98956.00;;;;2071972;28;20222;-72
2021/05/05 00:43:19;;;;;;;1.85;1.50;;;;;19.80;98947.00;;;;2078003;28;20214;-72
2021/05/05 00:44:22;;;;;;;4.47;2.10;;;;;19.80;98945.00;;;;2080120;28;20288;-72
2021/05/05 00:45:22;;;;;;;2.45;1.80;;;;;19.80;98948.00;;;;2080045;28;20753;-71
2021/05/05 00:46:22;;;;;;;3.20;2.20;;;;;19.80;98936.00;;;;2072002;28;20214;-72
2021/05/05 00:47:23;;;;;;;2.13;1.67;;;;;19.80;98943.00;;;;2080087;28;20214;-72
2021/05/05 00:48:23;;;;;;;2.73;2.03;;;;;19.80;98947.00;;;;2080760;28;20218;-72
2021/05/05 00:49:24;;;;;;;2.90;1.97;;;;;19.80;98944.00;;;;2080154;28;20301;-72
2021/05/05 00:50:24;;;;;;;2.10;1.50;;;;;19.80;98938.00;;;;2071751;28;20215;-72
2021/05/05 00:51:24;;;;;;;3.07;2.13;;;;;19.80;98954.00;;;;2063571;28;20593;-72
2021/05/05 00:52:25;;;;;;;3.03;1.83;;;;;19.80;98948.00;;;;2063588;28;20215;-72
2021/05/05 00:53:25;;;;;;;1.73;1.50;;;;;19.80;98947.00;;;;2071722;28;20301;-72
2021/05/05 00:54:26;;;;;;;1.80;1.60;;;;;19.80;98940.00;;;;2071141;28;20783;-72
2021/05/05 00:55:26;;;;;;;2.60;1.30;;;;;19.80;98952.00;;;;2070162;28;20214;-72
2021/05/05 00:56:26;;;;;;;2.17;1.73;;;;;19.80;98955.00;;;;2079276;28;20312;-72
2021/05/05 00:57:27;;;;;;;2.30;1.63;;;;;19.80;98959.00;;;;2071010;28;20218;-72
2021/05/05 00:58:27;;;;;;;3.50;1.90;;;;;19.80;98950.00;;;;2063604;28;20216;-72
2021/05/05 00:59:27;;;;;;;2.73;1.70;;;;;19.80;98952.00;;;;2079478;28;20689;-72
2021/05/05 01:00:28;;;;;;;1.77;1.50;;;;;19.80;98954.00;;;;2079505;28;20229;-72
2021/05/05 01:01:28;;;;;;;1.93;1.43;;;;;19.80;98950.00;;;;2079437;28;20772;-72
2021/05/05 01:02:28;;;;;;;2.57;1.60;;;;;19.70;98965.00;;;;2079400;28;20665;-69
2021/05/05 01:03:29;;;;;;;2.30;1.60;;;;;19.80;98910.00;;;;2079758;28;20987;-68
2021/05/05 01:04:29;;;;;;;2.30;1.60;;;;;19.80;98945.00;;;;2079654;28;20660;-71
2021/05/05 01:05:29;;;;;;;3.20;2.00;;;;;19.80;98967.00;;;;2079803;28;20589;-72
2021/05/05 01:06:30;;;;;;;3.13;1.80;;;;;19.80;98959.00;;;;2080122;28;20585;-71
2021/05/05 01:07:30;;;;;;;2.40;1.80;;;;;19.80;98971.00;;;;2079874;28;20494;-71
2021/05/05 01:08:30;;;;;;;1.60;1.50;;;;;19.80;98966.00;;;;2080764;28;20299;-72
2021/05/05 01:09:31;;;;;;;1.90;1.37;;;;;19.80;98965.00;;;;2080542;28;20218;-72
2021/05/05 01:10:31;;;;;;;2.30;1.77;;;;;19.70;98960.00;;;;2080511;28;20218;-72
2021/05/05 01:11:31;;;;;;;2.43;1.63;;;;;19.80;98964.00;;;;2080053;28;20248;-72
2021/05/05 01:12:32;;;;;;;2.07;1.53;;;;;19.80;98973.00;;;;2079917;28;20584;-72
2021/05/05 01:13:32;;;;;;;1.97;1.60;;;;;19.80;98975.00;;;;2080601;28;20213;-72
2021/05/05 01:14:32;;;;;;;1.93;1.53;;;;;19.80;98965.00;;;;2080276;28;20245;-72
2021/05/05 01:15:33;;;;;;;2.23;1.60;;;;;19.70;98968.00;;;;2080436;28;20242;-72
2021/05/05 01:16:33;;;;;;;1.73;1.37;;;;;19.70;98964.00;;;;2080514;28;20218;-72
2021/05/05 01:17:34;;;;;;;2.60;1.60;;;;;19.80;98968.00;;;;2079840;28;20225;-72
2021/05/05 01:18:34;;;;;;;1.20;1.10;;;;;19.80;98958.00;;;;2079850;28;20221;-72
2021/05/05 01:19:34;;;;;;;1.93;1.50;;;;;19.80;98954.00;;;;2071531;28;20206;-72
2021/05/05 01:20:35;;;;;;;2.23;1.73;;;;;19.80;98957.00;;;;2063564;28;20218;-72
2021/05/05 01:21:35;;;;;;;2.23;1.20;;;;;19.80;98957.00;;;;2071769;28;20199;-72
2021/05/05 01:22:36;;;;;;;2.37;1.50;;;;;19.80;98956.00;;;;2079595;28;20213;-72
2021/05/05 01:23:36;;;;;;;2.90;1.70;;;;;19.80;98963.00;;;;2080189;28;20206;-72
2021/05/05 01:24:37;;;;;;;2.17;1.60;;;;;19.70;98957.00;;;;2079164;28;20206;-71
2021/05/05 01:25:37;;;;;;;1.83;1.60;;;;;19.70;98960.00;;;;2079744;28;20233;-72
2021/05/05 01:26:38;;;;;;;3.27;1.80;;;;;19.70;98937.00;;;;2071812;28;20214;-72
2021/05/05 01:27:41;;;;;;;2.10;1.53;;;;;19.70;98953.00;;;;2068477;28;20202;-72
2021/05/05 01:28:42;;;;;;;1.50;1.40;;;;;19.70;98953.00;;;;2079998;28;20487;-72
2021/05/05 01:29:43;;;;;;;3.15;1.50;;;;;19.70;98958.00;;;;2079763;28;20731;-72
2021/05/05 01:30:44;;;;;;;2.37;1.53;;;;;19.70;98960.00;;;;2079936;28;20228;-72
2021/05/05 01:31:45;;;;;;;2.03;1.35;;;;;19.70;98953.00;;;;2079901;28;20248;-73
2021/05/05 01:32:46;;;;;;;1.63;1.23;;;;;19.70;98949.00;;;;2079699;28;20225;-72
2021/05/05 01:33:47;;;;;;;2.50;1.40;;;;;19.70;98954.00;;;;2071759;28;20907;-72
2021/05/05 01:34:48;;;;;;;1.70;1.27;;;;;19.70;98950.00;;;;2071440;28;20226;-72
2021/05/05 01:35:49;;;;;;;1.93;1.20;;;;;19.70;98951.00;;;;2080505;28;20981;-72
2021/05/05 01:36:49;;;;;;;2.30;1.70;;;;;19.70;98938.00;;;;2071601;28;20500;-72
2021/05/05 01:37:49;;;;;;;1.83;1.20;;;;;19.70;98944.00;;;;2071602;28;21252;-72
2021/05/05 01:38:50;;;;;;;1.60;1.30;;;;;19.70;98943.00;;;;2080401;28;20570;-72
2021/05/05 01:39:50;;;;;;;1.63;1.23;;;;;19.70;98936.00;;;;2076802;28;20226;-72
2021/05/05 01:40:52;;;;;;;1.93;1.30;;;;;19.70;98942.00;;;;2080425;28;20221;-72
2021/05/05 01:41:52;;;;;;;1.50;1.20;;;;;19.70;98943.00;;;;2080482;28;20585;-72
2021/05/05 01:42:52;;;;;;;2.13;1.20;;;;;19.70;98948.00;;;;2078859;28;20226;-72
2021/05/05 01:43:53;;;;;;;2.23;1.50;;;;;19.70;98936.00;;;;2079819;28;20811;-72
2021/05/05 01:44:53;;;;;;;1.47;0.90;;;;;19.70;98941.00;;;;2079694;28;20308;-72
2021/05/05 01:45:53;;;;;;;1.27;1.00;;;;;19.70;98934.00;;;;2079695;28;20268;-72
2021/05/05 01:46:54;;;;;;;1.40;1.20;;;;;19.60;98943.00;;;;2079650;28;20228;-72
2021/05/05 01:47:55;;;;;;;1.90;1.20;;;;;19.70;98935.00;;;;2077614;28;20229;-72
2021/05/05 01:48:55;;;;;;;1.73;1.10;;;;;19.70;98932.00;;;;2079708;28;20300;-72
2021/05/05 01:49:56;;;;;;;3.30;1.57;;;;;19.70;98937.00;;;;2079731;28;20230;-72
2021/05/05 01:50:56;;;;;;;2.40;1.43;;;;;19.70;98937.00;;;;2080402;28;20248;-72
2021/05/05 01:51:57;;;;;;;1.67;1.00;;;;;19.70;98936.00;;;;2080272;28;20237;-72
2021/05/05 01:52:58;;;;;;;1.85;1.20;;;;;19.70;98943.00;;;;2079471;28;20257;-72
2021/05/05 01:53:58;;;;;;;2.07;1.37;;;;;19.70;98943.00;;;;2079797;28;20611;-72
2021/05/05 01:54:58;;;;;;;1.80;1.50;;;;;19.70;98939.00;;;;2079368;28;20222;-72
2021/05/05 01:56:00;;;;;;;2.10;1.20;;;;;19.70;98943.00;;;;2080110;28;20673;-71
2021/05/05 01:57:23;;;;;;;3.17;1.60;;;;;19.70;98942.00;;;;2080278;28;20217;-72
2021/05/05 01:58:23;;;;;;;1.60;1.10;;;;;19.70;98927.00;;;;2079474;28;20222;-71
2021/05/05 01:59:24;;;;;;;2.20;1.20;;;;;19.70;98904.00;;;;2063355;28;20682;-72
2021/05/05 02:00:26;;;;;;;1.77;1.37;;;;;19.70;98942.00;;;;2067483;28;20218;-72
2021/05/05 02:01:26;;;;;;;2.58;1.45;;;;;19.70;98949.00;;;;2071371;28;20644;-72
2021/05/05 02:02:28;;;;;;;2.10;1.27;;;;;19.70;98942.00;;;;2062048;28;20246;-72
2021/05/05 02:03:28;;;;;;;1.27;1.00;;;;;19.70;98942.00;;;;2063092;28;20225;-72
2021/05/05 02:04:28;;;;;;;1.60;1.23;;;;;19.70;98939.00;;;;2070618;28;20235;-72
2021/05/05 02:05:29;;;;;;;1.30;1.13;;;;;19.70;98936.00;;;;2079581;28;20214;-72
2021/05/05 02:06:29;;;;;;;2.00;1.20;;;;;19.70;98942.00;;;;2079356;28;20238;-72
2021/05/05 02:07:30;;;;;;;1.30;0.97;;;;;19.70;98939.00;;;;2078233;28;20206;-72
2021/05/05 02:08:30;;;;;;;1.50;1.30;;;;;19.70;98939.00;;;;2079476;28;20229;-72
2021/05/05 02:09:30;;;;;;;2.33;1.20;;;;;19.70;98946.00;;;;2079418;28;20205;-72
2021/05/05 02:10:31;;;;;;;2.97;1.10;;;;;19.70;98933.00;;;;2080024;28;20221;-72
2021/05/05 02:11:32;;;;;;;1.70;1.13;;;;;19.70;98930.00;;;;2079557;28;20229;-72
2021/05/05 02:12:32;;;;;;;1.87;1.33;;;;;19.70;98938.00;;;;2062365;28;20211;-72
2021/05/05 02:13:32;;;;;;;2.17;1.60;;;;;19.60;98939.00;;;;2063232;28;20524;-72
2021/05/05 02:14:33;;;;;;;2.27;1.23;;;;;19.70;98938.00;;;;2071340;28;20218;-72
2021/05/05 02:15:33;;;;;;;2.63;1.10;;;;;19.60;98942.00;;;;2079393;28;20202;-72
2021/05/05 02:16:33;;;;;;;2.17;1.20;;;;;19.60;98941.00;;;;2080040;28;20218;-72
2021/05/05 02:17:34;;;;;;;1.40;1.10;;;;;19.60;98942.00;;;;2080058;28;20252;-72
2021/05/05 02:18:34;;;;;;;1.57;1.37;;;;;19.70;98938.00;;;;2079426;28;20248;-72
2021/05/05 02:19:35;;;;;;;1.83;1.20;;;;;19.60;98936.00;;;;2079474;28;20497;-72
2021/05/05 02:20:35;;;;;;;3.47;1.40;;;;;19.60;98941.00;;;;2080168;28;20214;-72
2021/05/05 02:21:35;;;;;;;2.10;1.67;;;;;19.60;98932.00;;;;2079976;28;20750;-72
2021/05/05 02:22:36;;;;;;;1.57;1.10;;;;;19.60;98946.00;;;;2080053;28;20245;-72
2021/05/05 02:23:36;;;;;;;1.40;1.30;;;;;19.60;98924.00;;;;2080189;28;20220;-72
2021/05/05 02:24:37;;;;;;;2.17;1.40;;;;;19.60;98936.00;;;;2078831;28;20582;-72
2021/05/05 02:25:37;;;;;;;1.37;0.90;;;;;19.60;98937.00;;;;2068021;28;20214;-72
2021/05/05 02:26:37;;;;;;;1.87;1.33;;;;;19.60;98948.00;;;;2078485;28;20210;-72
2021/05/05 02:27:38;;;;;;;2.10;1.30;;;;;19.60;98956.00;;;;2079280;28;20217;-72
2021/05/05 02:28:38;;;;;;;1.43;1.07;;;;;19.60;98949.00;;;;2062491;28;20238;-72
2021/05/05 02:29:39;;;;;;;1.67;1.10;;;;;19.60;98949.00;;;;2062902;28;20728;-72
2021/05/05 02:30:39;;;;;;;1.43;1.10;;;;;19.60;98951.00;;;;2078871;28;20214;-72
2021/05/05 02:31:39;;;;;;;1.33;0.90;;;;;19.60;98948.00;;;;2079096;28;20609;-72
2021/05/05 02:32:40;;;;;;;1.87;1.20;;;;;19.60;98955.00;;;;2078043;28;20880;-72
2021/05/05 02:33:40;;;;;;;1.87;1.10;;;;;19.60;98952.00;;;;2079242;28;20680;-72
2021/05/05 02:34:41;;;;;;;1.13;1.00;;;;;19.60;98942.00;;;;2079342;28;20218;-72
2021/05/05 02:35:41;;;;;;;2.20;1.40;;;;;19.60;98954.00;;;;2079124;28;20225;-72
2021/05/05 02:36:41;;;;;;;2.87;1.03;;;;;19.60;98903.00;;;;2079218;28;20217;-72
2021/05/05 02:37:43;;;;;;;1.20;1.00;;;;;19.60;98950.00;;;;2079134;28;20214;-72
2021/05/05 02:38:44;;;;;;;2.00;1.30;;;;;19.60;98947.00;;;;2071167;28;20297;-71
2021/05/05 02:39:44;;;;;;;1.60;1.10;;;;;19.60;98941.00;;;;2071368;28;20210;-71
2021/05/05 02:40:45;;;;;;;1.00;0.90;;;;;19.60;98950.00;;;;2063054;28;20215;-71
2021/05/05 02:41:45;;;;;;;2.20;1.17;;;;;19.60;98952.00;;;;2053514;28;20219;-72
2021/05/05 02:42:46;;;;;;;1.33;0.93;;;;;19.60;98950.00;;;;2062989;28;20733;-71
2021/05/05 02:43:46;;;;;;;1.20;1.10;;;;;19.60;98946.00;;;;2062982;28;20243;-72
2021/05/05 02:44:48;;;;;;;1.30;0.97;;;;;19.60;98954.00;;;;2078848;28;20217;-72
2021/05/05 02:45:49;;;;;;;1.75;1.10;;;;;19.60;98943.00;;;;2075261;28;20230;-72
2021/05/05 02:46:49;;;;;;;1.87;1.17;;;;;19.60;98958.00;;;;2079380;28;21012;-72
2021/05/05 02:47:49;;;;;;;1.27;1.03;;;;;19.60;98953.00;;;;2070898;28;20710;-72
2021/05/05 02:48:50;;;;;;;1.90;1.30;;;;;19.60;98953.00;;;;2062991;28;20634;-72
2021/05/05 02:49:50;;;;;;;1.83;1.47;;;;;19.60;98946.00;;;;2079235;28;20645;-70
2021/05/05 02:50:50;;;;;;;1.73;1.17;;;;;19.60;98952.00;;;;2079774;28;20589;-71
2021/05/05 02:51:51;;;;;;;1.47;1.00;;;;;19.60;98945.00;;;;2079674;28;20218;-71
2021/05/05 02:52:51;;;;;;;1.97;1.20;;;;;19.60;98953.00;;;;2079203;28;20264;-72
2021/05/05 02:53:51;;;;;;;2.87;1.10;;;;;19.60;98951.00;;;;2079085;28;20348;-72
2021/05/05 02:54:52;;;;;;;1.60;1.13;;;;;19.60;98964.00;;;;2076994;28;20222;-71
2021/05/05 02:55:52;;;;;;;2.60;1.23;;;;;19.60;98948.00;;;;2078176;28;20213;-72
2021/05/05 02:56:52;;;;;;;1.90;1.13;;;;;19.60;98947.00;;;;2079032;28;20213;-72
2021/05/05 02:57:53;;;;;;;2.10;1.30;;;;;19.60;98947.00;;;;2078905;28;20263;-72
2021/05/05 02:58:54;;;;;;;1.47;1.10;;;;;19.60;98951.00;;;;2071041;28;20215;-72
2021/05/05 02:59:54;;;;;;;1.40;1.10;;;;;19.60;98949.00;;;;2079182;28;20206;-71
2021/05/05 03:00:54;;;;;;;1.30;1.20;;;;;19.60;98955.00;;;;2078955;28;20459;-71
2021/05/05 03:01:55;;;;;;;1.53;0.93;;;;;19.60;98962.00;;;;2078754;28;20218;-72
2021/05/05 03:02:56;;;;;;;1.60;1.15;;;;;19.60;98952.00;;;;2079219;28;20316;-71
2021/05/05 03:03:56;;;;;;;1.57;1.10;;;;;19.60;98957.00;;;;2062779;28;20706;-72
2021/05/05 03:04:56;;;;;;;1.93;0.90;;;;;19.60;98952.00;;;;2062640;28;20231;-72
2021/05/05 03:05:57;;;;;;;2.10;1.27;;;;;19.60;98953.00;;;;2079037;28;20206;-72
2021/05/05 03:06:57;;;;;;;1.30;0.90;;;;;19.60;98946.00;;;;2079621;28;20202;-72
2021/05/05 03:07:57;;;;;;;1.30;1.10;;;;;19.60;98950.00;;;;2079014;28;20210;-72
2021/05/05 03:08:58;;;;;;;1.20;1.10;;;;;19.60;98938.00;;;;2070851;28;20651;-72
2021/05/05 03:09:58;;;;;;;2.53;1.10;;;;;19.60;98942.00;;;;2078999;28;20210;-71
2021/05/05 03:10:59;;;;;;;1.80;1.30;;;;;19.60;98951.00;;;;2079858;28;20236;-72
2021/05/05 03:12:00;;;;;;;2.58;1.25;;;;;19.60;98959.00;;;;2079058;28;20268;-72
2021/05/05 03:13:00;;;;;;;1.20;0.90;;;;;19.60;98955.00;;;;2079194;28;20253;-72
2021/05/05 03:14:00;;;;;;;1.80;1.00;;;;;19.60;98953.00;;;;2079082;28;20210;-72
2021/05/05 03:15:01;;;;;;;1.30;1.20;;;;;19.60;98952.00;;;;2079368;28;20218;-72
2021/05/05 03:16:02;;;;;;;1.53;1.10;;;;;19.60;98957.00;;;;2070874;28;20207;-72
2021/05/05 03:17:02;;;;;;;1.60;1.07;;;;;19.60;98955.00;;;;2062672;28;20269;-71
2021/05/05 03:18:03;;;;;;;1.23;0.90;;;;;19.60;98958.00;;;;2077676;28;20464;-72
2021/05/05 03:19:03;;;;;;;1.33;1.17;;;;;19.60;98948.00;;;;2078965;28;20745;-72
2021/05/05 03:20:07;;;;;;;2.13;1.40;;;;;19.50;98955.00;;;;2079098;28;20206;-72
2021/05/05 03:21:08;;;;;;;1.20;1.00;;;;;19.50;98950.00;;;;2075657;28;20283;-72
2021/05/05 03:22:08;;;;;;;1.13;1.00;;;;;19.60;98954.00;;;;2079032;28;20700;-72
2021/05/05 03:23:08;;;;;;;1.80;1.23;;;;;19.60;98958.00;;;;2078137;28;20724;-72
2021/05/05 03:24:09;;;;;;;1.67;1.20;;;;;19.60;98956.00;;;;2078309;28;20269;-72
2021/05/05 03:25:09;;;;;;;1.10;0.90;;;;;19.60;98947.00;;;;2075532;28;20217;-72
2021/05/05 03:26:10;;;;;;;1.87;1.30;;;;;19.50;98950.00;;;;2070664;28;20222;-72
2021/05/05 03:27:10;;;;;;;1.47;0.97;;;;;19.50;98946.00;;;;2054579;28;20726;-72
2021/05/05 03:28:10;;;;;;;1.40;1.00;;;;;19.60;98942.00;;;;2070278;28;20776;-72
2021/05/05 03:29:11;;;;;;;1.60;1.00;;;;;19.50;98951.00;;;;2078812;28;21102;-72
2021/05/05 03:30:12;;;;;;;1.30;1.10;;;;;19.50;98943.00;;;;2070644;28;20693;-72
2021/05/05 03:31:12;;;;;;;1.00;0.93;;;;;19.50;98944.00;;;;2062000;28;20716;-72
2021/05/05 03:32:12;;;;;;;1.40;1.20;;;;;19.50;98945.00;;;;2078442;28;20456;-72
2021/05/05 03:33:13;;;;;;;1.73;1.30;;;;;19.50;98943.00;;;;2079023;28;20210;-72
2021/05/05 03:34:14;;;;;;;1.43;1.17;;;;;19.50;98934.00;;;;2078922;28;20229;-72
2021/05/05 03:35:15;;;;;;;1.63;1.23;;;;;19.50;98944.00;;;;2076897;28;20727;-72
2021/05/05 03:36:15;;;;;;;2.00;1.20;;;;;19.50;98941.00;;;;2078073;28;20284;-72
2021/05/05 03:37:15;;;;;;;1.57;1.30;;;;;19.50;98943.00;;;;2079200;28;20222;-72
2021/05/05 03:38:16;;;;;;;1.10;0.97;;;;;19.50;98943.00;;;;2079783;28;20250;-72
2021/05/05 03:39:16;;;;;;;0.80;0.70;;;;;19.50;98938.00;;;;2080136;28;20213;-72
2021/05/05 03:40:16;;;;;;;1.87;1.40;;;;;19.50;98937.00;;;;2079911;28;20228;-71
2021/05/05 03:41:17;;;;;;;1.53;1.07;;;;;19.50;98937.00;;;;2080272;28;20217;-72
2021/05/05 03:42:17;;;;;;;2.03;1.43;;;;;19.50;98935.00;;;;2080402;28;20241;-72
2021/05/05 03:43:18;;;;;;;1.50;0.90;;;;;19.50;98953.00;;;;2080196;28;20221;-72
2021/05/05 03:44:19;;;;;;;1.25;1.15;;;;;19.50;98941.00;;;;2070566;28;20224;-72
2021/05/05 03:45:19;;;;;;;1.80;1.10;;;;;19.50;98942.00;;;;2080013;28;20250;-72
2021/05/05 03:46:19;;;;;;;1.83;1.63;;;;;19.50;98937.00;;;;2080974;28;20218;-72
2021/05/05 03:47:20;;;;;;;1.30;0.90;;;;;19.50;98938.00;;;;2079860;28;20248;-72
2021/05/05 03:48:23;;;;;;;1.70;1.30;;;;;19.50;98947.00;;;;2071413;28;20214;-72
2021/05/05 03:49:23;;;;;;;1.92;1.38;;;;;19.50;98939.00;;;;2080054;28;20669;-72
2021/05/05 03:50:23;;;;;;;1.10;1.00;;;;;19.50;98942.00;;;;2080329;28;20222;-72
2021/05/05 03:51:24;;;;;;;1.50;1.23;;;;;19.50;98942.00;;;;2072111;28;20266;-72
2021/05/05 03:52:24;;;;;;;1.00;0.90;;;;;19.50;98938.00;;;;2063847;28;20772;-72
2021/05/05 03:53:25;;;;;;;1.50;1.07;;;;;19.50;98945.00;;;;2071830;28;20218;-72
2021/05/05 03:54:25;;;;;;;1.30;1.00;;;;;19.50;98948.00;;;;2070849;28;20233;-69
2021/05/05 03:55:26;;;;;;;1.50;1.10;;;;;19.50;98945.00;;;;2077739;28;20453;-71
2021/05/05 03:56:26;;;;;;;1.43;1.10;;;;;19.50;98943.00;;;;2080443;28;20691;-71
2021/05/05 03:57:26;;;;;;;1.27;1.10;;;;;19.50;98948.00;;;;2080318;28;20588;-71
2021/05/05 03:58:27;;;;;;;1.80;1.10;;;;;19.50;98946.00;;;;2080400;28;20664;-71
2021/05/05 03:59:27;;;;;;;1.40;1.20;;;;;19.50;98947.00;;;;2071768;28;20214;-71
2021/05/05 04:00:27;;;;;;;1.37;1.27;;;;;19.50;98949.00;;;;2063475;28;20215;-71
2021/05/05 04:01:28;;;;;;;2.10;1.20;;;;;19.50;98960.00;;;;2079364;28;20675;-71
2021/05/05 04:02:28;;;;;;;2.50;1.10;;;;;19.50;98946.00;;;;2080004;28;20585;-71
2021/05/05 04:03:28;;;;;;;2.17;1.33;;;;;19.50;98945.00;;;;2071490;28;20806;-72
2021/05/05 04:04:29;;;;;;;2.03;1.20;;;;;19.50;98946.00;;;;2071520;28;20623;-71
2021/05/05 04:05:29;;;;;;;1.27;0.90;;;;;19.50;98947.00;;;;2079631;28;20229;-71
2021/05/05 04:06:30;;;;;;;2.03;1.20;;;;;19.50;98945.00;;;;2080505;28;20280;-72
2021/05/05 04:07:30;;;;;;;1.67;1.20;;;;;19.50;98959.00;;;;2080059;28;20283;-72
2021/05/05 04:08:30;;;;;;;1.50;1.30;;;;;19.50;98962.00;;;;2071875;28;20218;-71
2021/05/05 04:09:31;;;;;;;1.40;1.00;;;;;19.50;98963.00;;;;2079306;28;20229;-72
2021/05/05 04:10:31;;;;;;;1.03;0.93;;;;;19.50;98950.00;;;;2080244;28;20319;-71
2021/05/05 04:11:31;;;;;;;1.20;1.10;;;;;19.50;98956.00;;;;2080527;28;20209;-71
2021/05/05 04:12:32;;;;;;;2.13;1.43;;;;;19.50;98956.00;;;;2080611;28;20218;-72
2021/05/05 04:13:33;;;;;;;2.43;1.30;;;;;19.50;98957.00;;;;2071687;28;20318;-72
2021/05/05 04:14:33;;;;;;;2.00;1.23;;;;;19.50;98958.00;;;;2071580;28;20211;-72
2021/05/05 04:15:34;;;;;;;1.40;1.30;;;;;19.50;98961.00;;;;2080463;28;20214;-71
2021/05/05 04:16:35;;;;;;;1.33;1.10;;;;;19.50;98955.00;;;;2080504;28;20669;-71
2021/05/05 04:17:35;;;;;;;1.60;1.17;;;;;19.50;98959.00;;;;2071677;28;20655;-72
2021/05/05 04:18:35;;;;;;;3.23;1.43;;;;;19.50;98968.00;;;;2072188;28;20207;-71
2021/05/05 04:19:36;;;;;;;2.30;1.30;;;;;19.50;98965.00;;;;2081046;28;20260;-72
2021/05/05 04:20:36;;;;;;;1.67;1.37;;;;;19.50;98951.00;;;;2072261;28;20253;-72
2021/05/05 04:21:36;;;;;;;1.70;1.40;;;;;19.40;98961.00;;;;2056157;28;20606;-72
2021/05/05 04:22:37;;;;;;;2.23;1.40;;;;;19.40;98956.00;;;;2072214;28;20203;-72
2021/05/05 04:23:37;;;;;;;1.17;0.93;;;;;19.40;98975.00;;;;2080459;28;20213;-72
2021/05/05 04:24:38;;;;;;;2.20;1.37;;;;;19.40;98970.00;;;;2080134;28;20249;-72
2021/05/05 04:25:38;;;;;;;2.50;1.40;;;;;19.50;98971.00;;;;2080180;28;20233;-72
2021/05/05 04:26:38;;;;;;;1.13;1.03;;;;;19.40;98964.00;;;;2072090;28;20195;-72
2021/05/05 04:27:39;;;;;;;1.57;1.30;;;;;19.50;98974.00;;;;2080209;28;20213;-71
2021/05/05 04:28:39;;;;;;;2.30;1.30;;;;;19.50;98981.00;;;;2080272;28;20639;-72
2021/05/05 04:29:39;;;;;;;1.77;1.27;;;;;19.50;98976.00;;;;2080223;28;20237;-72
2021/05/05 04:30:40;;;;;;;2.00;1.30;;;;;19.50;98976.00;;;;2071997;28;20211;-71
2021/05/05 04:31:40;;;;;;;1.30;1.20;;;;;19.40;98977.00;;;;2063988;28;20707;-72
2021/05/05 04:32:41;;;;;;;2.03;1.50;;;;;19.40;98983.00;;;;2072083;28;20866;-72
2021/05/05 04:33:45;;;;;;;1.50;1.20;;;;;19.40;98980.00;;;;2064042;28;20221;-72
2021/05/05 04:34:46;;;;;;;1.40;1.30;;;;;19.50;98975.00;;;;2064377;28;20660;-72
2021/05/05 04:35:46;;;;;;;1.20;1.07;;;;;19.50;98992.00;;;;2078461;28;20206;-72
2021/05/05 04:36:46;;;;;;;1.80;1.40;;;;;19.40;98976.00;;;;2079649;28;20241;-72
2021/05/05 04:37:47;;;;;;;2.03;1.30;;;;;19.40;98979.00;;;;2080127;28;20230;-71
2021/05/05 04:38:47;;;;;;;2.20;1.73;;;;;19.40;98985.00;;;;2072108;28;20222;-71
2021/05/05 04:39:47;;;;;;;1.50;1.40;;;;;19.40;98975.00;;;;2071990;28;20214;-71
2021/05/05 04:40:48;;;;;;;2.57;1.20;;;;;19.40;98984.00;;;;2080326;28;20253;-72
2021/05/05 04:41:48;;;;;;;1.30;1.20;;;;;19.40;98990.00;;;;2063866;28;20261;-72
2021/05/05 04:42:48;;;;;;;2.67;1.27;;;;;19.40;98983.00;;;;2072079;28;20273;-72
2021/05/05 04:43:49;;;;;;;1.47;1.30;;;;;19.40;98989.00;;;;2080898;28;20884;-72
2021/05/05 04:44:49;;;;;;;1.60;1.30;;;;;19.40;98988.00;;;;2080898;28;20782;-72
2021/05/05 04:45:50;;;;;;;2.83;1.80;;;;;19.40;98981.00;;;;2080646;28;20218;-72
2021/05/05 04:46:50;;;;;;;2.90;1.63;;;;;19.40;98986.00;;;;2079841;28;20222;-73
2021/05/05 04:47:51;;;;;;;2.10;1.40;;;;;19.40;98988.00;;;;2080112;28;20379;-69
2021/05/05 04:48:51;;;;;;;1.77;1.33;;;;;19.50;98990.00;;;;2079904;28;20393;-70
2021/05/05 04:49:51;;;;;;;2.70;1.73;;;;;19.50;98990.00;;;;2080107;28;20305;-71
2021/05/05 04:50:52;;;;;;;2.00;1.47;;;;;19.50;98991.00;;;;2080791;28;20693;-71
2021/05/05 04:51:52;;;;;;;1.60;1.40;;;;;19.50;98995.00;;;;2071799;28;20705;-69
2021/05/05 04:52:53;;;;;;;2.03;1.50;;;;;19.50;98983.00;;;;2063802;28;20274;-71
2021/05/05 04:53:53;;;;;;;2.80;1.60;;;;;19.50;98999.00;;;;2055875;28;22102;-71
2021/05/05 04:54:53;;;;;;;2.60;1.83;;;;;19.50;98996.00;;;;2071780;28;20958;-71
2021/05/05 04:55:54;;;;;;;1.80;1.60;;;;;19.50;98999.00;;;;2080351;28;20245;-72
2021/05/05 04:56:54;;;;;;;2.93;1.60;;;;;19.50;98991.00;;;;2080004;28;20320;-74
2021/05/05 04:57:54;;;;;;;2.37;1.53;;;;;19.50;99000.00;;;;2071959;28;20254;-73
2021/05/05 04:58:55;;;;;;;2.30;1.90;;;;;19.50;99004.00;;;;2071947;28;20257;-73
2021/05/05 04:59:55;;;;;;;4.70;2.00;;;;;19.50;99001.00;;;;2071905;28;20218;-73
2021/05/05 05:00:55;;;;;;;3.73;1.97;;;;;19.50;99003.00;;;;2080164;28;20645;-74
2021/05/05 05:01:56;;;;;;;3.57;1.80;;;;;19.50;99005.00;;;;2080020;28;20840;-74
2021/05/05 05:02:56;;;;;;;2.93;2.00;;;;;19.50;99008.00;;;;2068715;28;20282;-74
2021/05/05 05:03:56;;;;;;;2.30;1.57;;;;;19.50;99002.00;;;;2068385;28;20672;-74